sensor_id;sensor_type;location;lat;lon;timestamp;P1;durP1;ratioP1;P2;durP2;ratioP2
71162;SDS011;58858;50.948;6.566;2022-12-18T00:07:51;37.95;;;16.77;;
71162;SDS011;58858;50.948;6.566;2022-12-18T00:17:52;26.70;;;14.65;;
71162;SDS011;58858;50.948;6.566;2022-12-18T00:27:53;25.73;;;13.40;;
71162;SDS011;58858;50.948;6.566;2022-12-18T00:37:54;27.48;;;14.75;;
71162;SDS011;58858;50.948;6.566;2022-12-18T00:47:57;24.27;;;13.73;;
71162;SDS011;58858;50.948;6.566;2022-12-18T00:57:58;25.63;;;14.85;;
71162;SDS011;58858;50.948;6.566;2022-12-18T01:07:59;30.35;;;14.90;;
71162;SDS011;58858;50.948;6.566;2022-12-18T01:18:00;26.20;;;12.45;;
71162;SDS011;58858;50.948;6.566;2022-12-18T01:28:02;28.08;;;12.68;;
71162;SDS011;58858;50.948;6.566;2022-12-18T01:38:03;26.25;;;13.23;;
71162;SDS011;58858;50.948;6.566;2022-12-18T01:48:05;24.25;;;12.68;;
71162;SDS011;58858;50.948;6.566;2022-12-18T01:58:07;24.13;;;13.17;;
71162;SDS011;58858;50.948;6.566;2022-12-18T02:08:10;30.00;;;13.93;;
71162;SDS011;58858;50.948;6.566;2022-12-18T02:18:24;22.02;;;12.05;;
71162;SDS011;58858;50.948;6.566;2022-12-18T02:28:30;22.95;;;12.90;;
71162;SDS011;58858;50.948;6.566;2022-12-18T02:38:38;25.20;;;12.23;;
71162;SDS011;58858;50.948;6.566;2022-12-18T02:48:46;24.83;;;12.80;;
71162;SDS011;58858;50.948;6.566;2022-12-18T03:09:06;23.63;;;13.25;;
71162;SDS011;58858;50.948;6.566;2022-12-18T03:19:11;27.38;;;13.52;;
71162;SDS011;58858;50.948;6.566;2022-12-18T03:29:23;25.90;;;13.30;;
71162;SDS011;58858;50.948;6.566;2022-12-18T03:39:26;26.20;;;13.48;;
71162;SDS011;58858;50.948;6.566;2022-12-18T03:49:44;24.85;;;13.30;;
71162;SDS011;58858;50.948;6.566;2022-12-18T03:59:56;28.73;;;15.13;;
71162;SDS011;58858;50.948;6.566;2022-12-18T04:10:15;29.50;;;12.63;;
71162;SDS011;58858;50.948;6.566;2022-12-18T04:20:17;28.90;;;13.77;;
71162;SDS011;58858;50.948;6.566;2022-12-18T04:30:20;25.38;;;12.95;;
71162;SDS011;58858;50.948;6.566;2022-12-18T04:40:21;23.15;;;11.95;;
71162;SDS011;58858;50.948;6.566;2022-12-18T04:50:23;25.95;;;12.65;;
71162;SDS011;58858;50.948;6.566;2022-12-18T05:00:24;28.02;;;13.90;;
71162;SDS011;58858;50.948;6.566;2022-12-18T05:10:26;24.33;;;13.13;;
71162;SDS011;58858;50.948;6.566;2022-12-18T05:20:27;23.13;;;12.50;;
71162;SDS011;58858;50.948;6.566;2022-12-18T05:30:28;26.05;;;12.55;;
71162;SDS011;58858;50.948;6.566;2022-12-18T05:40:29;26.80;;;13.93;;
71162;SDS011;58858;50.948;6.566;2022-12-18T05:50:33;27.67;;;13.20;;
71162;SDS011;58858;50.948;6.566;2022-12-18T06:00:39;24.98;;;13.25;;
71162;SDS011;58858;50.948;6.566;2022-12-18T06:10:41;25.42;;;14.68;;
71162;SDS011;58858;50.948;6.566;2022-12-18T06:20:43;25.58;;;13.77;;
71162;SDS011;58858;50.948;6.566;2022-12-18T06:30:44;28.98;;;15.88;;
71162;SDS011;58858;50.948;6.566;2022-12-18T06:40:48;28.13;;;14.70;;
71162;SDS011;58858;50.948;6.566;2022-12-18T06:50:49;25.83;;;14.20;;
71162;SDS011;58858;50.948;6.566;2022-12-18T07:00:51;29.25;;;15.25;;
71162;SDS011;58858;50.948;6.566;2022-12-18T07:10:52;30.45;;;15.52;;
71162;SDS011;58858;50.948;6.566;2022-12-18T07:20:54;30.63;;;15.75;;
71162;SDS011;58858;50.948;6.566;2022-12-18T07:30:55;28.33;;;13.73;;
71162;SDS011;58858;50.948;6.566;2022-12-18T07:41:00;27.30;;;14.65;;
71162;SDS011;58858;50.948;6.566;2022-12-18T07:51:03;29.67;;;13.40;;
71162;SDS011;58858;50.948;6.566;2022-12-18T08:01:06;30.40;;;16.43;;
71162;SDS011;58858;50.948;6.566;2022-12-18T08:11:08;27.13;;;14.43;;
71162;SDS011;58858;50.948;6.566;2022-12-18T08:21:14;27.58;;;17.25;;
71162;SDS011;58858;50.948;6.566;2022-12-18T08:31:17;25.90;;;13.77;;
71162;SDS011;58858;50.948;6.566;2022-12-18T08:41:20;33.87;;;15.37;;
71162;SDS011;58858;50.948;6.566;2022-12-18T08:51:21;27.02;;;13.32;;
71162;SDS011;58858;50.948;6.566;2022-12-18T09:01:22;28.33;;;14.02;;
71162;SDS011;58858;50.948;6.566;2022-12-18T09:11:24;27.42;;;13.65;;
71162;SDS011;58858;50.948;6.566;2022-12-18T09:21:31;24.00;;;14.03;;
71162;SDS011;58858;50.948;6.566;2022-12-18T09:31:33;23.75;;;13.68;;
71162;SDS011;58858;50.948;6.566;2022-12-18T09:41:44;29.90;;;12.68;;
71162;SDS011;58858;50.948;6.566;2022-12-18T09:51:57;26.08;;;14.70;;
71162;SDS011;58858;50.948;6.566;2022-12-18T10:02:15;23.50;;;13.32;;
71162;SDS011;58858;50.948;6.566;2022-12-18T10:32:26;23.33;;;13.25;;
71162;SDS011;58858;50.948;6.566;2022-12-18T10:42:29;23.00;;;12.57;;
71162;SDS011;58858;50.948;6.566;2022-12-18T10:52:30;22.67;;;13.60;;
71162;SDS011;58858;50.948;6.566;2022-12-18T11:02:35;22.02;;;12.93;;
71162;SDS011;58858;50.948;6.566;2022-12-18T11:12:38;21.90;;;13.45;;
71162;SDS011;58858;50.948;6.566;2022-12-18T11:22:39;22.95;;;14.13;;
71162;SDS011;58858;50.948;6.566;2022-12-18T11:32:40;25.25;;;15.02;;
71162;SDS011;58858;50.948;6.566;2022-12-18T11:43:02;26.52;;;13.98;;
71162;SDS011;58858;50.948;6.566;2022-12-18T12:45:36;22.33;;;13.05;;
71162;SDS011;58858;50.948;6.566;2022-12-18T12:55:40;25.20;;;15.40;;
71162;SDS011;58858;50.948;6.566;2022-12-18T13:05:48;26.67;;;15.10;;
71162;SDS011;58858;50.948;6.566;2022-12-18T13:16:04;28.30;;;15.60;;
71162;SDS011;58858;50.948;6.566;2022-12-18T13:56:47;25.60;;;16.73;;
71162;SDS011;58858;50.948;6.566;2022-12-18T14:06:49;28.35;;;16.45;;
71162;SDS011;58858;50.948;6.566;2022-12-18T14:16:52;25.33;;;15.15;;
71162;SDS011;58858;50.948;6.566;2022-12-18T14:26:53;29.58;;;18.40;;
71162;SDS011;58858;50.948;6.566;2022-12-18T14:36:54;27.02;;;14.93;;
71162;SDS011;58858;50.948;6.566;2022-12-18T14:46:56;36.65;;;17.30;;
71162;SDS011;58858;50.948;6.566;2022-12-18T14:57:02;30.52;;;16.50;;
71162;SDS011;58858;50.948;6.566;2022-12-18T15:07:16;30.83;;;16.83;;
71162;SDS011;58858;50.948;6.566;2022-12-18T15:17:19;29.52;;;17.17;;
71162;SDS011;58858;50.948;6.566;2022-12-18T15:27:26;34.33;;;19.10;;
71162;SDS011;58858;50.948;6.566;2022-12-18T15:47:40;30.45;;;16.73;;
71162;SDS011;58858;50.948;6.566;2022-12-18T15:57:42;31.90;;;17.45;;
71162;SDS011;58858;50.948;6.566;2022-12-18T16:07:43;31.70;;;18.73;;
71162;SDS011;58858;50.948;6.566;2022-12-18T16:17:45;33.95;;;19.60;;
71162;SDS011;58858;50.948;6.566;2022-12-18T16:27:47;33.88;;;18.88;;
71162;SDS011;58858;50.948;6.566;2022-12-18T16:37:48;32.65;;;18.30;;
71162;SDS011;58858;50.948;6.566;2022-12-18T16:47:49;34.45;;;17.58;;
71162;SDS011;58858;50.948;6.566;2022-12-18T16:57:50;27.23;;;16.10;;
71162;SDS011;58858;50.948;6.566;2022-12-18T17:07:51;30.45;;;17.52;;
71162;SDS011;58858;50.948;6.566;2022-12-18T17:17:52;27.42;;;17.27;;
71162;SDS011;58858;50.948;6.566;2022-12-18T17:27:54;31.45;;;17.80;;
71162;SDS011;58858;50.948;6.566;2022-12-18T17:37:55;29.70;;;17.25;;
71162;SDS011;58858;50.948;6.566;2022-12-18T17:47:56;35.92;;;20.58;;
71162;SDS011;58858;50.948;6.566;2022-12-18T17:57:58;35.25;;;20.08;;
71162;SDS011;58858;50.948;6.566;2022-12-18T18:07:59;34.17;;;18.23;;
71162;SDS011;58858;50.948;6.566;2022-12-18T18:18:02;32.57;;;16.93;;
71162;SDS011;58858;50.948;6.566;2022-12-18T18:28:03;37.72;;;21.27;;
71162;SDS011;58858;50.948;6.566;2022-12-18T18:38:04;36.92;;;20.98;;
71162;SDS011;58858;50.948;6.566;2022-12-18T18:48:06;33.08;;;19.05;;
71162;SDS011;58858;50.948;6.566;2022-12-18T18:58:07;39.30;;;21.65;;
71162;SDS011;58858;50.948;6.566;2022-12-18T19:08:08;41.03;;;22.35;;
71162;SDS011;58858;50.948;6.566;2022-12-18T19:18:10;34.28;;;20.48;;
71162;SDS011;58858;50.948;6.566;2022-12-18T19:28:11;42.75;;;23.90;;
71162;SDS011;58858;50.948;6.566;2022-12-18T19:38:12;41.30;;;23.13;;
71162;SDS011;58858;50.948;6.566;2022-12-18T19:48:14;40.65;;;23.17;;
71162;SDS011;58858;50.948;6.566;2022-12-18T19:58:15;38.35;;;21.30;;
71162;SDS011;58858;50.948;6.566;2022-12-18T20:08:16;41.42;;;22.65;;
71162;SDS011;58858;50.948;6.566;2022-12-18T20:18:18;42.75;;;21.98;;
71162;SDS011;58858;50.948;6.566;2022-12-18T20:28:19;40.67;;;23.15;;
71162;SDS011;58858;50.948;6.566;2022-12-18T20:38:20;48.20;;;24.45;;
71162;SDS011;58858;50.948;6.566;2022-12-18T20:48:21;47.58;;;23.40;;
71162;SDS011;58858;50.948;6.566;2022-12-18T20:58:23;44.45;;;24.00;;
71162;SDS011;58858;50.948;6.566;2022-12-18T21:08:24;36.88;;;21.90;;
71162;SDS011;58858;50.948;6.566;2022-12-18T21:18:25;42.40;;;22.75;;
71162;SDS011;58858;50.948;6.566;2022-12-18T21:28:26;41.72;;;22.90;;
71162;SDS011;58858;50.948;6.566;2022-12-18T21:38:27;50.88;;;25.33;;
71162;SDS011;58858;50.948;6.566;2022-12-18T21:48:28;44.50;;;24.23;;
71162;SDS011;58858;50.948;6.566;2022-12-18T21:58:29;47.22;;;24.70;;
71162;SDS011;58858;50.948;6.566;2022-12-18T22:08:30;43.85;;;23.55;;
71162;SDS011;58858;50.948;6.566;2022-12-18T22:18:32;47.03;;;25.60;;
71162;SDS011;58858;50.948;6.566;2022-12-18T22:28:33;45.33;;;24.38;;
71162;SDS011;58858;50.948;6.566;2022-12-18T22:38:52;50.33;;;24.63;;
71162;SDS011;58858;50.948;6.566;2022-12-18T22:48:53;47.70;;;24.75;;
71162;SDS011;58858;50.948;6.566;2022-12-18T22:58:54;44.58;;;24.00;;
71162;SDS011;58858;50.948;6.566;2022-12-18T23:08:56;46.13;;;23.58;;
71162;SDS011;58858;50.948;6.566;2022-12-18T23:18:57;43.58;;;24.48;;
71162;SDS011;58858;50.948;6.566;2022-12-18T23:28:59;40.13;;;22.80;;
71162;SDS011;58858;50.948;6.566;2022-12-18T23:39:01;44.67;;;24.63;;
71162;SDS011;58858;50.948;6.566;2022-12-18T23:49:02;43.35;;;24.13;;
71162;SDS011;58858;50.948;6.566;2022-12-18T23:59:04;41.42;;;22.50;;
